Time;durP1;ratioP1;P1;durP2;ratioP2;P2;SDS_P1;SDS_P2;PMS_P1;PMS_P2;Temp;Humidity;BMP_temperature;BMP_pressure;BME280_temperature;BME280_humidity;BME280_pressure;Samples;Min_cycle;Max_cycle;Signal;HPM_P1;HPM_P2
2023/03/16 00:02:08;;;;;;;0.80;0.80;;;;;;;1.65;83.86;98826.59;4992660;28;20050;-82
2023/03/16 00:04:36;;;;;;;0.80;0.80;;;;;;;1.65;84.09;98812.47;4991915;28;20583;-81
2023/03/16 00:07:05;;;;;;;0.80;0.80;;;;;;;1.62;84.32;98810.16;4992558;28;20509;-81
2023/03/16 00:09:32;;;;;;;0.88;0.88;;;;;;;1.62;84.53;98803.03;4992347;28;20521;-80
2023/03/16 00:12:03;;;;;;;0.85;0.85;;;;;;;1.61;84.63;98806.69;4992619;28;20140;-82
2023/03/16 00:14:31;;;;;;;0.70;0.70;;;;;;;1.57;84.85;98816.09;4992474;28;20490;-81
2023/03/16 00:16:58;;;;;;;0.90;0.90;;;;;;;1.55;85.47;98809.31;4991554;28;20096;-82
2023/03/16 00:19:25;;;;;;;0.77;0.77;;;;;;;1.51;85.76;98814.19;4991208;28;20046;-81
2023/03/16 00:21:52;;;;;;;0.77;0.77;;;;;;;1.45;86.36;98809.63;4992267;28;20148;-82
2023/03/16 00:24:19;;;;;;;0.90;0.90;;;;;;;1.42;86.86;98821.47;4992391;28;20141;-82
2023/03/16 00:26:47;;;;;;;0.80;0.80;;;;;;;1.38;87.49;98825.50;4991943;28;20065;-81
2023/03/16 00:29:14;;;;;;;0.88;0.88;;;;;;;1.38;87.94;98832.69;4992605;28;20046;-82
2023/03/16 00:31:44;;;;;;;0.90;0.90;;;;;;;1.39;88.06;98829.00;4992466;28;20090;-82
2023/03/16 00:34:11;;;;;;;0.70;0.70;;;;;;;1.34;88.49;98813.59;4992700;28;20046;-82
2023/03/16 00:36:38;;;;;;;0.88;0.88;;;;;;;1.34;88.80;98832.22;4992284;28;20128;-82
2023/03/16 00:39:05;;;;;;;0.80;0.80;;;;;;;1.32;89.09;98825.44;4974201;28;20054;-82
2023/03/16 00:41:36;;;;;;;0.90;0.90;;;;;;;1.34;89.42;98826.06;4971260;28;20074;-82
2023/03/16 00:44:04;;;;;;;0.90;0.90;;;;;;;1.35;89.71;98825.09;4971529;28;20061;-81
2023/03/16 00:46:33;;;;;;;0.90;0.90;;;;;;;1.35;89.77;98822.41;4938774;28;20149;-82
2023/03/16 00:49:02;;;;;;;0.80;0.80;;;;;;;1.28;89.91;98817.84;4971447;28;20658;-82
2023/03/16 00:51:32;;;;;;;0.90;0.90;;;;;;;1.24;90.42;98813.09;4955516;28;20154;-81
2023/03/16 00:54:00;;;;;;;0.90;0.90;;;;;;;1.26;90.47;98819.03;4955206;28;20055;-82
2023/03/16 00:56:33;;;;;;;0.90;0.90;;;;;;;1.28;90.57;98809.88;4955624;28;20089;-82
2023/03/16 00:59:18;;;;;;;0.90;0.90;;;;;;;1.29;90.68;98814.19;4929608;28;20062;-82
2023/03/16 01:01:48;;;;;;;0.80;0.80;;;;;;;1.26;90.78;98811.06;4954727;28;20051;-82
2023/03/16 01:04:22;;;;;;;0.88;0.88;;;;;;;1.28;91.04;98814.38;4955305;28;20510;-82
2023/03/16 01:06:52;;;;;;;0.80;0.80;;;;;;;1.25;91.00;98815.56;4910119;28;20612;-81
2023/03/16 01:09:20;;;;;;;0.80;0.80;;;;;;;1.24;91.10;98807.78;4941339;28;20046;-81
2023/03/16 01:11:52;;;;;;;0.90;0.90;;;;;;;1.26;91.40;98808.41;4970743;28;20046;-81
2023/03/16 01:14:21;;;;;;;0.80;0.80;;;;;;;1.30;91.59;98817.66;4972064;28;20509;-81
2023/03/16 01:16:48;;;;;;;0.90;0.90;;;;;;;1.34;91.47;98812.78;4970713;28;20474;-81
2023/03/16 01:19:15;;;;;;;0.82;0.82;;;;;;;1.32;91.35;98818.31;4970855;28;20054;-81
2023/03/16 01:21:45;;;;;;;0.90;0.90;;;;;;;1.33;91.51;98813.81;4938688;28;20051;-82
2023/03/16 01:24:14;;;;;;;0.88;0.88;;;;;;;1.30;91.27;98817.66;4923508;28;20078;-81
2023/03/16 01:26:40;;;;;;;0.90;0.90;;;;;;;1.34;91.12;98826.06;4971703;28;20051;-81
2023/03/16 01:29:08;;;;;;;0.60;0.60;;;;;;;1.30;91.28;98821.16;4970874;28;20218;-81
2023/03/16 01:31:36;;;;;;;0.90;0.90;;;;;;;1.30;91.20;98818.47;4970365;28;20062;-82
2023/03/16 01:34:04;;;;;;;0.90;0.90;;;;;;;1.23;91.08;98822.91;4969707;28;20047;-81
2023/03/16 01:36:32;;;;;;;0.82;0.82;;;;;;;1.25;91.43;98820.88;4971886;28;20146;-82
2023/03/16 01:39:01;;;;;;;0.90;0.90;;;;;;;1.23;91.26;98822.91;4971989;28;20564;-81
2023/03/16 01:41:34;;;;;;;0.90;0.90;;;;;;;1.21;91.33;98816.94;4970522;28;20536;-82
2023/03/16 01:44:01;;;;;;;0.90;0.90;;;;;;;1.21;91.41;98824.09;4970840;28;20058;-81
2023/03/16 01:46:29;;;;;;;0.90;0.90;;;;;;;1.22;91.59;98831.91;4970764;28;20043;-82
2023/03/16 01:49:11;;;;;;;0.90;0.90;;;;;;;1.22;91.54;98821.28;4970580;28;20461;-81
2023/03/16 01:51:44;;;;;;;0.90;0.90;;;;;;;1.21;91.36;98826.75;4954705;28;20062;-82
2023/03/16 01:54:20;;;;;;;0.73;0.73;;;;;;;1.27;91.42;98826.03;4970474;28;20541;-81
2023/03/16 01:57:03;;;;;;;0.90;0.90;;;;;;;1.23;91.21;98825.56;4971546;28;20525;-81
2023/03/16 01:59:38;;;;;;;0.80;0.80;;;;;;;1.20;91.38;98825.94;4970693;28;20050;-82
2023/03/16 02:02:06;;;;;;;0.80;0.80;;;;;;;1.21;91.47;98824.91;4970435;28;20081;-82
2023/03/16 02:05:07;;;;;;;1.00;1.00;;;;;;;1.21;91.39;98830.25;4952690;28;20058;-81
2023/03/16 02:07:41;;;;;;;1.00;1.00;;;;;;;1.16;91.50;98829.97;4952910;28;20075;-81
2023/03/16 02:10:11;;;;;;;0.82;0.82;;;;;;;1.18;91.53;98827.97;4945400;28;20067;-82
2023/03/16 02:12:38;;;;;;;0.88;0.88;;;;;;;1.15;91.40;98817.72;4953182;28;20054;-82
2023/03/16 02:15:05;;;;;;;0.80;0.80;;;;;;;1.20;91.57;98822.47;4953226;28;20047;-82
2023/03/16 02:17:52;;;;;;;1.00;1.00;;;;;;;1.24;91.56;98808.63;4946376;28;20086;-80
2023/03/16 02:20:38;;;;;;;0.77;0.77;;;;;;;1.24;91.43;98813.94;4957736;28;20050;-82
2023/03/16 02:23:17;;;;;;;0.90;0.90;;;;;;;1.19;91.27;98816.34;4953428;28;20051;-81
2023/03/16 02:26:05;;;;;;;0.85;0.85;;;;;;;1.21;91.39;98816.94;4954195;28;20114;-81
2023/03/16 02:28:37;;;;;;;0.90;0.90;;;;;;;1.19;91.39;98826.13;4954020;28;20054;-82
2023/03/16 02:31:05;;;;;;;0.90;0.90;;;;;;;1.13;91.38;98819.72;4957024;28;20449;-81
2023/03/16 02:33:33;;;;;;;0.80;0.80;;;;;;;1.19;91.34;98821.66;4974374;28;20050;-81
2023/03/16 02:36:01;;;;;;;0.82;0.82;;;;;;;1.21;91.57;98808.97;4970562;28;20054;-82
2023/03/16 02:38:28;;;;;;;0.82;0.82;;;;;;;1.25;91.54;98807.59;4993323;28;20057;-82
2023/03/16 02:41:11;;;;;;;0.90;0.90;;;;;;;1.27;91.30;98804.75;4994187;28;20476;-81
2023/03/16 02:43:41;;;;;;;0.80;0.80;;;;;;;1.27;91.28;98802.09;4977316;28;20073;-81
2023/03/16 02:46:16;;;;;;;0.75;0.75;;;;;;;1.30;91.25;98804.38;4993911;28;20571;-81
2023/03/16 02:48:52;;;;;;;0.80;0.80;;;;;;;1.32;91.12;98790.88;4998421;28;20060;-81
2023/03/16 02:51:19;;;;;;;0.80;0.80;;;;;;;1.30;91.30;98796.41;4993567;28;20050;-81
2023/03/16 02:53:46;;;;;;;0.90;0.90;;;;;;;1.33;91.24;98798.66;5005296;28;20050;-81
2023/03/16 02:56:14;;;;;;;0.80;0.80;;;;;;;1.33;91.11;98793.34;4993507;28;20060;-82
2023/03/16 02:58:41;;;;;;;0.80;0.80;;;;;;;1.36;91.23;98803.59;4994064;28;20398;-81
2023/03/16 03:01:13;;;;;;;0.93;0.93;;;;;;;1.40;91.13;98790.75;4976650;28;20410;-81
2023/03/16 03:03:40;;;;;;;0.90;0.90;;;;;;;1.40;91.05;98801.41;4992561;28;20429;-82
2023/03/16 03:06:07;;;;;;;0.75;0.75;;;;;;;1.40;91.09;98802.22;4994026;28;20046;-82
2023/03/16 03:08:36;;;;;;;0.90;0.90;;;;;;;1.44;90.82;98792.00;4992684;28;20536;-81
2023/03/16 03:11:03;;;;;;;1.00;1.00;;;;;;;1.41;90.85;98793.22;4993623;28;20113;-82
2023/03/16 03:13:30;;;;;;;0.90;0.90;;;;;;;1.36;91.08;98792.97;4992806;28;20042;-83
2023/03/16 03:15:57;;;;;;;0.70;0.70;;;;;;;1.38;90.82;98785.63;4992608;28;20117;-82
2023/03/16 03:18:26;;;;;;;0.80;0.80;;;;;;;1.40;90.63;98782.78;4992758;28;20074;-82
2023/03/16 03:20:54;;;;;;;0.85;0.85;;;;;;;1.41;90.48;98785.25;4991988;28;20146;-81
2023/03/16 03:23:21;;;;;;;0.80;0.80;;;;;;;1.40;90.37;98785.44;4992683;28;20133;-82
2023/03/16 03:25:48;;;;;;;0.80;0.80;;;;;;;1.38;90.40;98782.16;4992271;28;20081;-80
2023/03/16 03:28:16;;;;;;;0.80;0.80;;;;;;;1.38;90.49;98769.66;4988338;28;20078;-81
2023/03/16 03:30:44;;;;;;;0.80;0.80;;;;;;;1.39;90.67;98773.16;4973098;28;20055;-81
2023/03/16 03:33:11;;;;;;;0.93;0.93;;;;;;;1.45;90.46;98775.06;4973770;28;20074;-82
2023/03/16 03:35:40;;;;;;;0.70;0.70;;;;;;;1.43;90.36;98775.25;4972573;28;20046;-83
2023/03/16 03:38:08;;;;;;;0.90;0.90;;;;;;;1.40;90.23;98777.47;4972598;28;20051;-82
2023/03/16 03:40:35;;;;;;;0.90;0.90;;;;;;;1.36;90.05;98773.53;4956646;28;20093;-81
2023/03/16 03:43:04;;;;;;;0.80;0.80;;;;;;;1.30;90.15;98770.63;4972511;28;20124;-82
2023/03/16 03:45:35;;;;;;;0.90;0.90;;;;;;;1.26;90.29;98782.63;4972420;28;20050;-83
2023/03/16 03:48:03;;;;;;;0.80;0.80;;;;;;;1.23;90.76;98777.72;4973693;28;20047;-81
2023/03/16 03:50:30;;;;;;;0.80;0.80;;;;;;;1.22;90.62;98789.38;4972158;28;20053;-83
2023/03/16 03:53:10;;;;;;;0.82;0.82;;;;;;;1.19;90.68;98784.44;4965637;28;20078;-82
2023/03/16 03:55:56;;;;;;;0.80;0.80;;;;;;;1.19;90.70;98787.09;4973396;28;20050;-82
2023/03/16 03:58:23;;;;;;;0.80;0.80;;;;;;;1.19;90.78;98794.22;4973381;28;20046;-85
2023/03/16 04:00:51;;;;;;;0.90;0.90;;;;;;;1.18;90.81;98801.38;4973098;28;20164;-83
2023/03/16 04:03:18;;;;;;;0.90;0.90;;;;;;;1.16;91.04;98795.44;4988358;28;20062;-82
2023/03/16 04:05:45;;;;;;;0.80;0.80;;;;;;;1.16;90.94;98790.09;4955593;28;20054;-83
2023/03/16 04:08:13;;;;;;;0.88;0.88;;;;;;;1.16;91.04;98790.09;4971964;28;20057;-81
2023/03/16 04:10:41;;;;;;;0.80;0.80;;;;;;;1.10;91.38;98782.91;4970906;28;20089;-83
2023/03/16 04:13:09;;;;;;;0.80;0.80;;;;;;;1.07;91.83;98783.28;4971542;28;20070;-82
2023/03/16 04:15:37;;;;;;;0.90;0.90;;;;;;;1.11;91.34;98781.88;4971495;28;20047;-82
2023/03/16 04:18:16;;;;;;;0.90;0.90;;;;;;;0.98;91.47;98768.47;4971736;28;20131;-81
2023/03/16 04:20:43;;;;;;;0.90;0.90;;;;;;;0.90;91.85;98773.91;4970998;28;20057;-82
2023/03/16 04:23:15;;;;;;;0.90;0.90;;;;;;;0.86;91.96;98768.13;4971546;28;20399;-84
2023/03/16 04:25:46;;;;;;;0.90;0.90;;;;;;;0.91;92.43;98781.66;4986511;28;20061;-83
2023/03/16 04:28:16;;;;;;;0.88;0.88;;;;;;;0.95;92.68;98774.97;4990863;28;20430;-83
2023/03/16 04:30:46;;;;;;;0.93;0.93;;;;;;;0.90;92.93;98780.03;4990528;28;20079;-83
2023/03/16 04:33:22;;;;;;;0.80;0.80;;;;;;;0.92;92.91;98785.16;4990623;28;20489;-84
2023/03/16 04:35:51;;;;;;;0.80;0.80;;;;;;;0.82;93.40;98780.97;4974214;28;20133;-83
2023/03/16 04:38:21;;;;;;;0.90;0.90;;;;;;;0.80;93.55;98771.53;4990297;28;20464;-82
2023/03/16 04:40:53;;;;;;;0.90;0.90;;;;;;;0.86;93.95;98800.84;4990948;28;20052;-82
2023/03/16 04:43:24;;;;;;;0.82;0.82;;;;;;;0.89;93.96;98804.13;4990183;28;20046;-82
2023/03/16 04:45:55;;;;;;;0.90;0.90;;;;;;;0.77;94.04;98807.28;4990224;28;20113;-83
2023/03/16 04:48:31;;;;;;;0.85;0.85;;;;;;;0.74;94.54;98815.63;4973717;28;20059;-83
2023/03/16 04:51:00;;;;;;;1.00;1.00;;;;;;;0.73;94.68;98808.63;4989469;28;20168;-83
2023/03/16 04:53:30;;;;;;;0.90;0.90;;;;;;;0.66;95.22;98799.78;4990187;28;20074;-83
2023/03/16 04:56:02;;;;;;;0.80;0.80;;;;;;;0.73;95.58;98813.97;4974834;28;20080;-82
2023/03/16 04:58:31;;;;;;;0.90;0.90;;;;;;;0.68;95.82;98805.72;4990270;28;20073;-84
2023/03/16 05:01:01;;;;;;;0.80;0.80;;;;;;;0.74;95.94;98820.94;4990463;28;20399;-82
2023/03/16 05:03:31;;;;;;;0.80;0.80;;;;;;;0.72;96.27;98825.59;4990443;28;20050;-83
2023/03/16 05:05:58;;;;;;;0.90;0.90;;;;;;;0.68;96.41;98819.00;4990584;28;20042;-82
2023/03/16 05:08:27;;;;;;;0.80;0.80;;;;;;;0.73;96.47;98832.56;4990186;28;20046;-84
2023/03/16 05:10:58;;;;;;;0.80;0.80;;;;;;;0.70;96.83;98830.28;4973833;28;20058;-83
2023/03/16 05:13:30;;;;;;;0.90;0.90;;;;;;;0.80;96.95;98846.75;4990272;28;20113;-84
2023/03/16 05:15:58;;;;;;;0.80;0.80;;;;;;;0.84;96.93;98845.38;4990260;28;20050;-82
2023/03/16 05:18:32;;;;;;;0.90;0.90;;;;;;;0.89;96.89;98838.66;4989681;28;20050;-83
2023/03/16 05:20:59;;;;;;;0.90;0.90;;;;;;;0.84;96.63;98825.97;4988468;28;20055;-84
2023/03/16 05:23:37;;;;;;;0.73;0.73;;;;;;;0.79;96.47;98815.06;4978320;28;20053;-84
2023/03/16 05:26:04;;;;;;;0.90;0.90;;;;;;;0.90;96.07;98813.75;4977807;28;20101;-84
2023/03/16 05:28:34;;;;;;;0.88;0.88;;;;;;;0.95;96.12;98814.03;4975290;28;20047;-82
2023/03/16 05:31:10;;;;;;;0.88;0.88;;;;;;;1.06;95.94;98816.16;4974212;28;20134;-82
2023/03/16 05:33:43;;;;;;;0.80;0.80;;;;;;;1.09;95.49;98805.19;4973024;28;20054;-83
2023/03/16 05:36:16;;;;;;;0.80;0.80;;;;;;;1.06;94.88;98810.84;4974291;28;20329;-85
2023/03/16 05:38:46;;;;;;;0.90;0.90;;;;;;;1.06;94.79;98810.84;4973306;28;20046;-83
2023/03/16 05:41:23;;;;;;;1.00;1.00;;;;;;;1.10;94.61;98817.47;4959076;28;20065;-83
2023/03/16 05:44:00;;;;;;;0.98;0.98;;;;;;;1.01;94.29;98802.63;4973796;28;20101;-83
2023/03/16 05:46:37;;;;;;;0.90;0.90;;;;;;;1.00;94.05;98816.94;4972334;28;20055;-83
2023/03/16 05:49:05;;;;;;;0.90;0.90;;;;;;;1.15;94.27;98824.88;4970527;28;20074;-83
2023/03/16 05:51:32;;;;;;;0.80;0.80;;;;;;;1.21;93.69;98829.44;4971562;28;20508;-83
2023/03/16 05:54:02;;;;;;;0.93;0.93;;;;;;;1.11;93.73;98823.59;4970251;28;20050;-83
2023/03/16 05:56:42;;;;;;;0.90;0.90;;;;;;;1.08;93.45;98835.41;4992776;28;20132;-84
2023/03/16 05:59:09;;;;;;;0.75;0.75;;;;;;;1.16;93.68;98827.31;4992600;28;20142;-83
2023/03/16 06:01:38;;;;;;;0.85;0.85;;;;;;;1.19;93.50;98832.28;4992946;28;20513;-82
2023/03/16 06:04:06;;;;;;;0.80;0.80;;;;;;;1.24;93.76;98829.03;4976392;28;20046;-83
2023/03/16 06:06:38;;;;;;;0.90;0.90;;;;;;;1.26;93.52;98840.31;5004845;28;20052;-82
2023/03/16 06:09:14;;;;;;;0.90;0.90;;;;;;;1.25;93.48;98841.34;5008031;28;20049;-83
2023/03/16 06:11:42;;;;;;;0.90;0.90;;;;;;;1.24;93.45;98834.34;5002587;28;20057;-84
2023/03/16 06:14:13;;;;;;;0.90;0.90;;;;;;;1.19;93.22;98852.72;4984525;28;20421;-84
2023/03/16 06:16:44;;;;;;;0.90;0.90;;;;;;;1.16;93.20;98853.91;4991010;28;20535;-82
2023/03/16 06:19:13;;;;;;;0.90;0.90;;;;;;;1.13;93.31;98864.09;5000706;28;20050;-86
2023/03/16 06:21:41;;;;;;;0.80;0.80;;;;;;;1.18;93.43;98875.81;4981783;28;20057;-85
2023/03/16 06:24:10;;;;;;;0.80;0.80;;;;;;;1.07;93.15;98868.34;4995151;28;20050;-86
2023/03/16 06:26:37;;;;;;;0.68;0.68;;;;;;;1.01;93.32;98877.03;4985210;28;20097;-85
2023/03/16 06:29:07;;;;;;;0.90;0.90;;;;;;;0.98;93.55;98878.22;4988051;28;20054;-85
2023/03/16 06:31:39;;;;;;;0.90;0.90;;;;;;;0.95;93.72;98869.81;4986018;28;20054;-84
2023/03/16 06:34:07;;;;;;;0.80;0.80;;;;;;;0.98;93.58;98869.44;4998911;28;20064;-85
2023/03/16 06:36:37;;;;;;;1.00;1.00;;;;;;;1.04;93.80;98860.75;4989890;28;20058;-83
2023/03/16 06:39:13;;;;;;;0.90;0.90;;;;;;;1.04;93.71;98860.75;4987524;28;20043;-82
2023/03/16 06:41:46;;;;;;;0.90;0.90;;;;;;;1.16;93.67;98869.84;4987681;28;20084;-84
2023/03/16 06:44:15;;;;;;;0.90;0.90;;;;;;;1.16;93.58;98869.03;4996306;28;20513;-83
2023/03/16 06:47:05;;;;;;;0.77;0.77;;;;;;;1.24;93.38;98859.13;5009228;28;20045;-85
2023/03/16 06:49:35;;;;;;;0.90;0.90;;;;;;;1.34;93.55;98861.47;5010375;28;20508;-83
2023/03/16 06:52:12;;;;;;;0.90;0.90;;;;;;;1.40;92.62;98863.38;5004855;28;20461;-82
2023/03/16 06:54:40;;;;;;;0.80;0.80;;;;;;;1.42;92.87;98863.16;4991586;28;20125;-85
2023/03/16 06:57:08;;;;;;;0.70;0.70;;;;;;;1.51;92.98;98852.22;4641539;28;10000484;-81
2023/03/16 06:59:35;;;;;;;1.00;1.00;;;;;;;1.57;92.72;98849.81;5008697;28;20472;-81
2023/03/16 07:02:03;;;;;;;0.90;0.90;;;;;;;1.64;92.54;98846.22;5003479;28;20078;-82
2023/03/16 07:04:32;;;;;;;0.90;0.90;;;;;;;1.68;92.35;98844.00;4968116;28;20049;-82
2023/03/16 07:07:00;;;;;;;0.90;0.90;;;;;;;1.76;92.38;98849.19;4998990;28;20051;-81
2023/03/16 07:09:28;;;;;;;0.90;0.90;;;;;;;1.89;92.04;98851.94;4990316;28;20070;-82
2023/03/16 07:11:55;;;;;;;0.90;0.90;;;;;;;1.95;91.67;98853.06;5007018;28;20685;-81
2023/03/16 07:14:23;;;;;;;0.90;0.90;;;;;;;1.86;91.25;98859.50;4994116;28;20046;-83
2023/03/16 07:16:52;;;;;;;0.88;0.88;;;;;;;1.87;91.47;98861.97;4967475;28;20466;-83
2023/03/16 07:19:21;;;;;;;0.90;0.90;;;;;;;1.81;91.18;98861.94;4984377;28;20137;-82
2023/03/16 07:21:50;;;;;;;0.93;0.93;;;;;;;1.80;91.11;98861.09;4991565;28;20155;-84
2023/03/16 07:24:20;;;;;;;0.80;0.80;;;;;;;1.87;91.25;98853.16;4993949;28;20084;-82
2023/03/16 07:26:47;;;;;;;0.93;0.93;;;;;;;1.86;91.05;98855.00;4993675;28;20081;-84
2023/03/16 07:29:23;;;;;;;0.90;0.90;;;;;;;1.93;90.89;98857.72;4981421;28;20105;-81
2023/03/16 07:31:50;;;;;;;0.90;0.90;;;;;;;1.96;90.59;98862.66;4990622;28;20069;-84
2023/03/16 07:34:21;;;;;;;0.90;0.90;;;;;;;2.03;90.30;98855.56;5002595;28;20491;-84
2023/03/16 07:36:53;;;;;;;0.80;0.80;;;;;;;2.09;90.31;98851.28;4997701;28;20109;-85
2023/03/16 07:39:23;;;;;;;0.80;0.80;;;;;;;2.24;89.87;98844.03;4991554;28;20053;-82
2023/03/16 07:41:54;;;;;;;0.90;0.90;;;;;;;2.27;89.59;98851.63;4987314;28;20046;-83
2023/03/16 07:44:37;;;;;;;0.95;0.95;;;;;;;2.25;88.56;98842.19;4998979;28;20081;-83
2023/03/16 07:47:05;;;;;;;0.90;0.90;;;;;;;2.28;88.85;98847.13;5001279;28;20042;-82
2023/03/16 07:49:33;;;;;;;0.90;0.90;;;;;;;2.32;88.59;98843.88;4970977;28;20124;-84
2023/03/16 07:52:00;;;;;;;0.90;0.90;;;;;;;2.32;88.48;98837.72;4973900;28;20046;-87
2023/03/16 07:54:36;;;;;;;0.80;0.80;;;;;;;2.48;88.42;98842.75;4990846;28;20128;-84
2023/03/16 07:57:05;;;;;;;0.80;0.80;;;;;;;2.45;88.03;98836.97;4991523;28;20222;-85
2023/03/16 07:59:38;;;;;;;0.90;0.90;;;;;;;2.44;88.43;98838.84;4993944;28;20050;-83
2023/03/16 08:02:13;;;;;;;0.95;0.95;;;;;;;2.59;88.42;98842.19;4997195;28;20588;-83
2023/03/16 08:04:41;;;;;;;0.90;0.90;;;;;;;2.64;88.35;98838.13;4977997;28;20046;-83
2023/03/16 08:07:09;;;;;;;0.90;0.90;;;;;;;2.68;88.06;98839.34;4987267;28;20057;-82
2023/03/16 08:09:50;;;;;;;0.98;0.98;;;;;;;2.58;87.75;98837.91;4935957;28;1321090;-85
2023/03/16 08:12:22;;;;;;;0.90;0.90;;;;;;;2.57;87.32;98846.06;4988866;28;20509;-80
2023/03/16 08:14:50;;;;;;;0.90;0.90;;;;;;;2.61;87.48;98839.34;4985663;28;20050;-80
2023/03/16 08:17:23;;;;;;;0.90;0.90;;;;;;;2.70;86.99;98840.00;4959296;28;20061;-81
2023/03/16 08:19:50;;;;;;;0.90;0.90;;;;;;;2.78;87.24;98847.81;4992315;28;20514;-80
2023/03/16 08:22:23;;;;;;;0.90;0.90;;;;;;;2.76;87.36;98839.19;4989815;28;20049;-82
2023/03/16 08:24:51;;;;;;;0.90;0.90;;;;;;;2.83;87.16;98845.38;4989354;28;20532;-82
2023/03/16 08:27:19;;;;;;;0.93;0.93;;;;;;;2.71;87.21;98850.47;4956711;28;20429;-84
2023/03/16 08:29:52;;;;;;;0.90;0.90;;;;;;;2.66;87.59;98836.06;4966122;28;20133;-83
2023/03/16 08:32:22;;;;;;;0.90;0.90;;;;;;;2.76;87.30;98844.50;4973456;28;20058;-85
2023/03/16 08:34:51;;;;;;;0.90;0.90;;;;;;;2.81;87.14;98842.06;4997038;28;20097;-82
2023/03/16 08:37:18;;;;;;;0.80;0.80;;;;;;;2.94;87.07;98858.16;4982081;28;20076;-85
2023/03/16 08:39:46;;;;;;;0.80;0.80;;;;;;;2.93;86.44;98855.69;4994845;28;20057;-84
2023/03/16 08:42:15;;;;;;;0.90;0.90;;;;;;;3.05;86.65;98864.75;4987355;28;20051;-84
2023/03/16 08:44:49;;;;;;;0.90;0.90;;;;;;;3.08;86.57;98864.34;4989276;28;20049;-84
2023/03/16 08:47:18;;;;;;;0.85;0.85;;;;;;;3.09;86.01;98859.81;4998189;28;20540;-84
2023/03/16 08:49:45;;;;;;;0.85;0.85;;;;;;;3.12;86.20;98864.78;5000791;28;20053;-83
2023/03/16 08:52:14;;;;;;;0.90;0.90;;;;;;;3.06;85.78;98866.38;4978038;28;20050;-82
2023/03/16 08:54:42;;;;;;;0.90;0.90;;;;;;;3.00;85.94;98867.19;5006744;28;20511;-82
2023/03/16 08:57:29;;;;;;;0.90;0.90;;;;;;;3.16;85.64;98872.16;4996620;28;20073;-85
2023/03/16 08:59:56;;;;;;;0.80;0.80;;;;;;;3.00;85.46;98861.84;5008453;28;20112;-84
2023/03/16 09:02:24;;;;;;;1.00;1.00;;;;;;;2.98;85.46;98854.06;4997161;28;20567;-84
2023/03/16 09:04:52;;;;;;;0.90;0.90;;;;;;;3.02;86.10;98865.97;4999617;28;20082;-86
2023/03/16 09:07:19;;;;;;;0.90;0.90;;;;;;;3.03;86.23;98856.13;4994823;28;20608;-88
2023/03/16 09:09:46;;;;;;;0.85;0.85;;;;;;;3.15;86.03;98862.53;4999868;28;20072;-87
2023/03/16 09:12:14;;;;;;;0.90;0.90;;;;;;;3.30;85.66;98867.72;4994873;28;20042;-86
2023/03/16 09:14:41;;;;;;;0.90;0.90;;;;;;;3.21;85.38;98852.91;4976102;28;20042;-86
2023/03/16 09:17:10;;;;;;;0.80;0.80;;;;;;;3.14;85.33;98852.91;4999646;28;20169;-86
2023/03/16 09:19:37;;;;;;;0.80;0.80;;;;;;;3.22;85.70;98843.91;4995401;28;20086;-85
2023/03/16 09:22:25;;;;;;;0.80;0.80;;;;;;;3.39;85.21;98861.19;4991336;28;20054;-85
2023/03/16 09:24:52;;;;;;;0.70;0.70;;;;;;;3.32;84.93;98851.47;4996109;28;20081;-84
2023/03/16 09:27:19;;;;;;;0.80;0.80;;;;;;;3.28;84.55;98869.75;4993867;28;20149;-80
2023/03/16 09:29:48;;;;;;;0.80;0.80;;;;;;;3.04;85.06;98858.59;4999796;28;20091;-83
2023/03/16 09:32:21;;;;;;;0.90;0.90;;;;;;;3.04;85.70;98855.94;5004573;28;20089;-83
2023/03/16 09:34:48;;;;;;;0.80;0.80;;;;;;;3.08;85.82;98847.53;5003400;28;20050;-82
2023/03/16 09:37:15;;;;;;;0.90;0.90;;;;;;;3.09;85.88;98847.34;4989046;28;20054;-85
2023/03/16 09:39:42;;;;;;;0.90;0.90;;;;;;;3.30;85.54;98850.88;4995936;28;20046;-85
2023/03/16 09:42:20;;;;;;;0.90;0.90;;;;;;;3.39;85.25;98857.66;5002984;28;20053;-84
2023/03/16 09:45:03;;;;;;;0.90;0.90;;;;;;;3.36;84.94;98845.56;5010511;28;20435;-83
2023/03/16 09:47:34;;;;;;;0.93;0.93;;;;;;;3.37;84.59;98849.06;5000141;28;20389;-89
2023/03/16 09:50:05;;;;;;;0.80;0.80;;;;;;;3.53;84.56;98843.34;4978951;28;20127;-83
2023/03/16 09:53:06;;;;;;;0.90;0.90;;;;;;;3.75;83.75;98841.31;4997960;28;20085;-85
2023/03/16 09:55:36;;;;;;;0.90;0.90;;;;;;;3.76;83.48;98850.97;4974674;28;20422;-85
2023/03/16 09:58:06;;;;;;;0.90;0.90;;;;;;;3.61;83.30;98847.66;4645216;28;9999864;-86
2023/03/16 10:00:38;;;;;;;0.88;0.88;;;;;;;3.55;83.66;98845.81;4977872;28;20508;-88
2023/03/16 10:03:17;;;;;;;0.90;0.90;;;;;;;3.49;83.94;98850.09;4967435;28;20054;-86
2023/03/16 10:05:47;;;;;;;0.88;0.88;;;;;;;3.41;84.34;98855.63;4991523;28;20089;-87
2023/03/16 10:08:23;;;;;;;0.80;0.80;;;;;;;3.48;84.66;98857.28;4983910;28;20061;-84
2023/03/16 10:11:13;;;;;;;0.90;0.90;;;;;;;3.54;84.16;98852.16;4983024;28;20157;-87
2023/03/16 10:13:41;;;;;;;0.90;0.90;;;;;;;3.62;83.75;98851.97;4977534;28;20108;-84
2023/03/16 10:16:13;;;;;;;0.90;0.90;;;;;;;3.64;83.27;98849.91;4993418;28;20262;-87
2023/03/16 10:18:43;;;;;;;0.85;0.85;;;;;;;3.69;83.81;98855.47;4989693;28;20050;-85
2023/03/16 10:21:17;;;;;;;0.90;0.90;;;;;;;3.77;83.54;98857.94;4986754;28;20125;-85
2023/03/16 10:23:47;;;;;;;0.90;0.90;;;;;;;3.77;83.71;98863.28;4987951;28;20120;-89
2023/03/16 10:26:25;;;;;;;0.82;0.82;;;;;;;3.85;83.48;98857.75;4992565;28;20049;-85
2023/03/16 10:28:53;;;;;;;0.80;0.80;;;;;;;3.82;83.33;98860.00;4986301;28;20046;-82
2023/03/16 10:31:22;;;;;;;0.80;0.80;;;;;;;3.91;83.08;98854.25;4991818;28;20577;-84
2023/03/16 10:33:52;;;;;;;0.80;0.80;;;;;;;3.95;82.66;98864.50;5005332;28;20089;-84
2023/03/16 10:36:31;;;;;;;0.90;0.90;;;;;;;4.04;82.54;98858.78;4995136;28;20070;-83
2023/03/16 10:39:03;;;;;;;0.90;0.90;;;;;;;4.04;82.41;98865.97;4989419;28;20046;-81
2023/03/16 10:41:36;;;;;;;0.80;0.80;;;;;;;3.95;82.60;98876.03;4990212;28;20153;-85
2023/03/16 10:44:15;;;;;;;0.80;0.80;;;;;;;3.80;82.64;98870.91;4994160;28;20057;-85
2023/03/16 10:46:47;;;;;;;0.90;0.90;;;;;;;3.79;83.03;98871.91;5002603;28;20046;-81
2023/03/16 10:49:34;;;;;;;0.80;0.80;;;;;;;3.84;82.80;98871.28;4974490;28;20064;-83
2023/03/16 10:52:11;;;;;;;0.80;0.80;;;;;;;3.69;83.17;98868.81;4985340;28;20050;-82
2023/03/16 10:54:39;;;;;;;0.80;0.80;;;;;;;3.43;83.07;98875.75;4956914;28;20063;-83
2023/03/16 10:57:36;;;;;;;0.80;0.80;;;;;;;3.21;83.84;98864.38;4974019;28;20062;-84
2023/03/16 11:00:17;;;;;;;0.90;0.90;;;;;;;3.14;84.28;98860.06;4988863;28;20080;-83
2023/03/16 11:02:44;;;;;;;0.80;0.80;;;;;;;3.13;84.57;98867.25;4991687;28;20140;-83
2023/03/16 11:05:17;;;;;;;0.80;0.80;;;;;;;3.22;85.01;98865.22;4993315;28;20050;-82
2023/03/16 11:08:00;;;;;;;0.80;0.80;;;;;;;3.26;85.07;98869.13;4997471;28;20618;-83
2023/03/16 11:10:30;;;;;;;0.80;0.80;;;;;;;3.09;84.82;98876.69;4991657;28;20057;-83
2023/03/16 11:13:18;;;;;;;0.80;0.80;;;;;;;2.95;85.21;98865.13;4992021;28;20066;-84
2023/03/16 11:16:21;;;;;;;0.70;0.70;;;;;;;2.98;85.94;98864.72;4974155;28;20054;-82
2023/03/16 11:19:03;;;;;;;0.70;0.70;;;;;;;2.92;86.01;98873.53;4991779;28;20046;-82
2023/03/16 11:21:53;;;;;;;0.85;0.85;;;;;;;2.90;86.20;98872.88;4997147;28;20052;-83
2023/03/16 11:24:50;;;;;;;0.90;0.90;;;;;;;2.90;86.46;98878.22;4975654;28;20061;-85
2023/03/16 11:27:22;;;;;;;0.80;0.80;;;;;;;3.01;87.11;98867.00;4985645;28;20501;-84
2023/03/16 11:30:03;;;;;;;0.80;0.80;;;;;;;3.17;86.56;98867.69;4954135;28;20050;-82
2023/03/16 11:32:44;;;;;;;0.77;0.77;;;;;;;3.18;86.26;98871.97;4974386;28;20161;-83
2023/03/16 11:35:34;;;;;;;0.70;0.70;;;;;;;3.14;86.30;98882.22;4987931;28;20058;-82
2023/03/16 11:38:30;;;;;;;0.80;0.80;;;;;;;3.03;86.34;98883.59;4991119;28;20054;-85
2023/03/16 11:41:04;;;;;;;0.80;0.80;;;;;;;2.91;86.74;98884.38;4981108;28;20099;-85
2023/03/16 11:43:42;;;;;;;0.80;0.80;;;;;;;2.77;87.02;98894.16;4978631;28;20097;-84
2023/03/16 11:46:10;;;;;;;0.82;0.82;;;;;;;2.62;87.45;98896.13;4962030;28;20049;-86
2023/03/16 11:48:50;;;;;;;0.90;0.90;;;;;;;2.47;88.13;98893.56;4975865;28;20042;-83
2023/03/16 11:51:17;;;;;;;0.90;0.90;;;;;;;2.37;88.62;98894.72;4999955;28;20141;-85
2023/03/16 11:54:11;;;;;;;0.90;0.90;;;;;;;2.46;89.16;98903.41;4989588;28;20133;-85
2023/03/16 11:56:43;;;;;;;0.90;0.90;;;;;;;2.37;88.97;98899.22;4957042;28;20472;-84
2023/03/16 11:59:43;;;;;;;0.80;0.80;;;;;;;2.38;89.35;98907.03;4989575;28;20057;-85
2023/03/16 12:02:44;;;;;;;0.82;0.82;;;;;;;2.38;89.36;98914.19;4974635;28;20237;-84
2023/03/16 12:05:23;;;;;;;0.82;0.82;;;;;;;2.34;89.45;98915.59;4974744;28;20472;-83